createdAt,value
2018-12-29T00:00:16.737Z,3.98
2018-12-29T00:01:16.722Z,3.98
2018-12-29T00:02:16.708Z,3.95
2018-12-29T00:03:16.693Z,4.06
2018-12-29T00:04:16.680Z,3.99
2018-12-29T00:05:16.669Z,4.02
2018-12-29T00:06:16.854Z,4.05
2018-12-29T00:07:16.645Z,3.94
2018-12-29T00:08:16.625Z,4.02
2018-12-29T00:09:16.607Z,4.12
2018-12-29T00:10:16.594Z,4.01
2018-12-29T00:11:16.580Z,4.10
2018-12-29T00:12:16.565Z,4.06
2018-12-29T00:13:16.552Z,3.98
2018-12-29T00:14:16.536Z,4.05
2018-12-29T00:15:16.523Z,4.04
2018-12-29T00:16:16.511Z,4.05
2018-12-29T00:17:16.493Z,4.06
2018-12-29T00:18:16.483Z,3.98
2018-12-29T00:19:16.466Z,4.06
2018-12-29T00:20:16.452Z,4.12
2018-12-29T00:21:16.439Z,4.13
2018-12-29T00:22:16.423Z,4.06
2018-12-29T00:23:16.410Z,4.06
2018-12-29T00:24:16.396Z,4.14
2018-12-29T00:25:16.381Z,4.08
2018-12-29T00:26:16.371Z,4.12
2018-12-29T00:27:16.354Z,4.10
2018-12-29T00:28:16.341Z,4.08
2018-12-29T00:29:16.325Z,4.06
2018-12-29T00:30:16.562Z,4.08
2018-12-29T00:31:16.300Z,4.12
2018-12-29T00:32:16.294Z,4.10
2018-12-29T00:33:16.270Z,4.12
2018-12-29T00:34:16.257Z,4.08
2018-12-29T00:35:16.243Z,4.12
2018-12-29T00:36:16.232Z,4.10
2018-12-29T00:37:16.213Z,4.12
2018-12-29T00:38:16.199Z,4.05
2018-12-29T00:39:16.186Z,4.16
2018-12-29T00:40:16.172Z,4.22
2018-12-29T00:41:16.157Z,4.13
2018-12-29T00:42:16.144Z,4.19
2018-12-29T00:43:16.133Z,4.22
2018-12-29T00:44:16.116Z,4.16
2018-12-29T00:45:16.303Z,4.23
2018-12-29T00:46:16.089Z,4.17
2018-12-29T00:47:16.074Z,4.14
2018-12-29T00:48:16.061Z,4.17
2018-12-29T00:49:16.047Z,4.12
2018-12-29T00:50:16.036Z,4.17
2018-12-29T00:51:16.022Z,4.22
2018-12-29T00:52:16.005Z,4.22
2018-12-29T00:53:15.992Z,4.23
2018-12-29T00:54:15.980Z,4.35
2018-12-29T00:55:15.964Z,4.37
2018-12-29T00:56:15.955Z,4.35
2018-12-29T00:57:15.936Z,4.38
2018-12-29T00:58:15.923Z,4.32
2018-12-29T00:59:15.909Z,4.38
2018-12-29T01:00:15.896Z,4.30
2018-12-29T01:01:15.882Z,4.26
2018-12-29T01:02:15.868Z,4.35
2018-12-29T01:03:15.855Z,4.24
2018-12-29T01:04:15.842Z,4.24
2018-12-29T01:05:15.827Z,4.35
2018-12-29T01:06:15.814Z,4.23
2018-12-29T01:07:15.800Z,4.28
2018-12-29T01:08:15.794Z,4.37
2018-12-29T01:09:15.974Z,4.23
2018-12-29T01:10:15.759Z,4.28
2018-12-29T01:11:15.746Z,4.35
2018-12-29T01:12:15.732Z,4.31
2018-12-29T01:13:15.718Z,4.32
2018-12-29T01:14:15.707Z,4.41
2018-12-29T01:15:15.691Z,4.30
2018-12-29T01:16:15.680Z,4.28
2018-12-29T01:17:15.664Z,4.35
2018-12-29T01:18:15.651Z,4.37
2018-12-29T01:19:15.638Z,4.35
2018-12-29T01:20:15.629Z,4.32
2018-12-29T01:21:15.612Z,4.35
2018-12-29T01:22:15.597Z,4.37
2018-12-29T01:23:15.585Z,4.40
2018-12-29T01:24:15.571Z,4.40
2018-12-29T01:25:15.557Z,4.37
2018-12-29T01:27:15.530Z,4.40
2018-12-29T01:28:15.518Z,4.40
2018-12-29T01:29:15.504Z,4.32
2018-12-29T01:30:15.490Z,4.24
2018-12-29T01:31:15.478Z,4.37
2018-12-29T01:32:15.464Z,4.26
2018-12-29T01:33:15.450Z,4.32
2018-12-29T01:34:15.436Z,4.31
2018-12-29T01:35:15.426Z,4.24
2018-12-29T01:36:15.497Z,4.26
2018-12-29T01:37:15.397Z,4.38
2018-12-29T01:38:15.384Z,4.26
2018-12-29T01:39:15.374Z,4.34
2018-12-29T01:40:15.356Z,4.38
2018-12-29T01:41:15.342Z,4.24
2018-12-29T01:42:15.328Z,4.32
2018-12-29T01:43:15.390Z,4.30
2018-12-29T01:44:15.305Z,4.35
2018-12-29T01:45:17.573Z,4.28
2018-12-29T01:46:15.275Z,4.34
2018-12-29T01:47:15.261Z,4.32
2018-12-29T01:48:15.249Z,4.34
2018-12-29T01:49:15.233Z,4.34
2018-12-29T01:50:15.220Z,4.40
2018-12-29T01:51:15.209Z,4.40
2018-12-29T01:52:15.194Z,4.34
2018-12-29T01:53:15.180Z,4.35
2018-12-29T01:54:15.166Z,4.38
2018-12-29T01:55:15.153Z,4.32
2018-12-29T01:56:15.144Z,4.35
2018-12-29T01:57:15.127Z,4.34
2018-12-29T01:58:15.113Z,4.35
2018-12-29T01:59:15.101Z,4.37
2018-12-29T02:00:15.087Z,4.26
2018-12-29T02:01:15.073Z,4.32
2018-12-29T02:02:15.060Z,4.30
2018-12-29T02:03:15.046Z,4.26
2018-12-29T02:04:15.033Z,4.26
2018-12-29T02:05:15.019Z,4.31
2018-12-29T02:06:15.006Z,4.35
2018-12-29T02:07:15.243Z,4.35
2018-12-29T02:08:14.979Z,4.34
2018-12-29T02:09:14.965Z,4.34
2018-12-29T02:10:14.952Z,4.31
2018-12-29T02:11:14.939Z,4.35
2018-12-29T02:12:14.926Z,4.30
2018-12-29T02:13:14.912Z,4.40
2018-12-29T02:14:15.101Z,4.32
2018-12-29T02:15:14.886Z,4.23
2018-12-29T02:16:14.873Z,4.40
2018-12-29T02:17:14.858Z,4.31
2018-12-29T02:18:14.845Z,4.34
2018-12-29T02:19:14.831Z,4.24
2018-12-29T02:20:14.824Z,4.35
2018-12-29T02:21:14.807Z,4.32
2018-12-29T02:22:14.790Z,4.26
2018-12-29T02:23:14.777Z,4.32
2018-12-29T02:24:14.764Z,4.34
2018-12-29T02:25:14.751Z,4.37
2018-12-29T02:26:14.736Z,4.45
2018-12-29T02:27:14.723Z,4.35
2018-12-29T02:28:14.710Z,4.34
2018-12-29T02:29:14.696Z,4.42
2018-12-29T02:30:14.684Z,4.41
2018-12-29T02:31:14.674Z,4.34
2018-12-29T02:32:14.660Z,4.38
2018-12-29T02:33:14.643Z,4.37
2018-12-29T02:34:14.631Z,4.42
2018-12-29T02:35:14.617Z,4.38
2018-12-29T02:36:14.607Z,4.37
2018-12-29T02:37:14.599Z,4.38
2018-12-29T02:38:14.580Z,4.44
2018-12-29T02:39:14.564Z,4.44
2018-12-29T02:40:14.578Z,4.37
2018-12-29T02:41:14.536Z,4.41
2018-12-29T02:42:14.524Z,4.40
2018-12-29T02:43:14.510Z,4.37
2018-12-29T02:44:14.497Z,4.32
2018-12-29T02:45:14.487Z,4.41
2018-12-29T02:46:14.470Z,4.41
2018-12-29T02:47:14.456Z,4.35
2018-12-29T02:48:14.448Z,4.40
2018-12-29T02:49:14.430Z,4.38
2018-12-29T02:50:14.418Z,4.38
2018-12-29T02:51:14.403Z,4.37
2018-12-29T02:52:14.390Z,4.34
2018-12-29T02:53:14.376Z,4.40
2018-12-29T02:54:14.363Z,4.45
2018-12-29T02:55:14.350Z,4.38
2018-12-29T02:56:14.337Z,4.35
2018-12-29T02:57:14.323Z,4.34
2018-12-29T02:58:14.309Z,4.37
2018-12-29T02:59:14.296Z,4.35
2018-12-29T03:00:14.285Z,4.41
2018-12-29T03:01:14.269Z,4.34
2018-12-29T03:02:14.259Z,4.34
2018-12-29T03:03:14.241Z,4.24
2018-12-29T03:04:14.228Z,4.31
2018-12-29T03:05:14.215Z,4.26
2018-12-29T03:06:14.403Z,4.22
2018-12-29T03:07:14.190Z,4.30
2018-12-29T03:08:14.181Z,4.16
2018-12-29T03:09:14.160Z,4.26
2018-12-29T03:10:14.154Z,4.13
2018-12-29T03:11:14.133Z,4.14
2018-12-29T03:12:14.127Z,4.20
2018-12-29T03:13:14.107Z,4.08
2018-12-29T03:14:14.091Z,4.17
2018-12-29T03:15:14.078Z,4.22
2018-12-29T03:16:14.064Z,4.14
2018-12-29T03:17:14.049Z,4.19
2018-12-29T03:18:14.035Z,4.22
2018-12-29T03:19:14.022Z,4.10
2018-12-29T03:20:14.010Z,4.10
2018-12-29T03:21:14.020Z,4.12
2018-12-29T03:22:13.982Z,4.04
2018-12-29T03:23:13.967Z,4.10
2018-12-29T03:24:13.954Z,4.06
2018-12-29T03:25:13.947Z,4.10
2018-12-29T03:26:13.950Z,3.98
2018-12-29T03:27:13.911Z,3.96
2018-12-29T03:28:13.900Z,4.05
2018-12-29T03:29:13.933Z,4.02
2018-12-29T03:30:13.871Z,4.01
2018-12-29T03:31:13.865Z,3.98
2018-12-29T03:32:13.848Z,3.99
2018-12-29T03:33:13.831Z,4.04
2018-12-29T03:34:13.816Z,4.13
2018-12-29T03:35:13.808Z,4.13
2018-12-29T03:36:13.788Z,4.08
2018-12-29T03:37:13.783Z,4.05
2018-12-29T03:38:13.759Z,3.98
2018-12-29T03:39:13.746Z,4.06
2018-12-29T03:40:13.731Z,4.04
2018-12-29T03:41:13.715Z,4.10
2018-12-29T03:42:13.703Z,4.05
2018-12-29T03:43:13.689Z,4.08
2018-12-29T03:44:13.679Z,3.98
2018-12-29T03:45:13.663Z,3.99
2018-12-29T03:46:13.647Z,4.01
2018-12-29T03:47:13.633Z,3.98
2018-12-29T03:48:13.619Z,4.02
2018-12-29T03:49:13.604Z,3.98
2018-12-29T03:50:13.600Z,4.06
2018-12-29T03:51:13.578Z,4.10
2018-12-29T03:52:13.563Z,4.02
2018-12-29T03:53:13.549Z,4.12
2018-12-29T03:54:13.535Z,4.10
2018-12-29T03:55:13.522Z,3.99
2018-12-29T03:56:13.509Z,4.04
2018-12-29T03:57:13.497Z,3.98
2018-12-29T03:58:13.481Z,3.98
2018-12-29T03:59:13.466Z,4.06
2018-12-29T04:00:13.454Z,4.02
2018-12-29T04:01:13.438Z,4.05
2018-12-29T04:02:13.425Z,4.12
2018-12-29T04:03:13.412Z,4.02
2018-12-29T04:04:13.398Z,4.04
2018-12-29T04:05:13.383Z,3.88
2018-12-29T04:06:13.369Z,3.98
2018-12-29T04:07:13.360Z,4.01
2018-12-29T04:08:13.343Z,4.02
2018-12-29T04:09:13.328Z,4.02
2018-12-29T04:10:13.315Z,3.99
2018-12-29T04:11:13.301Z,4.17
2018-12-29T04:12:13.287Z,4.12
2018-12-29T04:13:13.273Z,4.05
2018-12-29T04:14:13.259Z,4.04
2018-12-29T04:15:13.245Z,4.02
2018-12-29T04:16:13.232Z,4.05
2018-12-29T04:17:13.219Z,3.98
2018-12-29T04:18:13.205Z,4.04
2018-12-29T04:19:13.190Z,4.08
2018-12-29T04:20:13.176Z,3.99
2018-12-29T04:21:13.166Z,4.04
2018-12-29T04:22:13.148Z,3.95
2018-12-29T04:23:13.135Z,3.96
2018-12-29T04:24:13.121Z,4.06
2018-12-29T04:25:13.107Z,3.98
2018-12-29T04:26:13.093Z,4.04
2018-12-29T04:27:13.146Z,4.13
2018-12-29T04:28:13.073Z,3.99
2018-12-29T04:29:13.051Z,4.08
2018-12-29T04:30:13.037Z,4.04
2018-12-29T04:31:13.024Z,4.02
2018-12-29T04:32:13.010Z,4.01
2018-12-29T04:33:12.995Z,4.04
2018-12-29T04:34:12.982Z,3.99
2018-12-29T04:35:12.968Z,4.05
2018-12-29T04:36:12.955Z,3.92
2018-12-29T04:37:12.940Z,4.06
2018-12-29T04:38:12.926Z,4.01
2018-12-29T04:39:13.115Z,4.10
2018-12-29T04:40:12.900Z,4.04
2018-12-29T04:41:12.885Z,4.06
2018-12-29T04:42:12.870Z,3.95
2018-12-29T04:43:12.857Z,4.16
2018-12-29T04:44:12.843Z,4.05
2018-12-29T04:45:12.834Z,4.08
2018-12-29T04:46:12.815Z,4.08
2018-12-29T04:47:12.801Z,4.02
2018-12-29T04:48:12.786Z,4.01
2018-12-29T04:49:12.771Z,4.05
2018-12-29T04:50:12.757Z,4.06
2018-12-29T04:51:12.744Z,4.08
2018-12-29T04:52:12.730Z,4.13
2018-12-29T04:53:12.716Z,4.10
2018-12-29T04:54:12.701Z,4.05
2018-12-29T04:55:12.938Z,4.10
2018-12-29T04:56:12.673Z,4.08
2018-12-29T04:57:12.659Z,4.08
2018-12-29T04:58:12.647Z,4.12
2018-12-29T04:59:12.632Z,4.13
2018-12-29T05:00:12.618Z,4.12
2018-12-29T05:01:12.603Z,4.12
2018-12-29T05:02:12.589Z,4.16
2018-12-29T05:03:12.576Z,4.05
2018-12-29T05:04:12.571Z,4.01
2018-12-29T05:05:12.547Z,3.96
2018-12-29T05:06:12.534Z,4.08
2018-12-29T05:07:12.521Z,4.12
2018-12-29T05:08:12.507Z,4.10
2018-12-29T05:09:12.491Z,4.08
2018-12-29T05:10:12.477Z,4.04
2018-12-29T05:11:12.464Z,4.05
2018-12-29T05:12:12.450Z,4.12
2018-12-29T05:13:12.434Z,4.06
2018-12-29T05:14:12.421Z,4.13
2018-12-29T05:15:12.407Z,4.20
2018-12-29T05:16:13.001Z,4.08
2018-12-29T05:17:12.383Z,4.13
2018-12-29T05:18:12.365Z,4.20
2018-12-29T05:19:12.355Z,4.12
2018-12-29T05:20:12.337Z,4.14
2018-12-29T05:21:12.323Z,4.10
2018-12-29T05:22:12.310Z,4.16
2018-12-29T05:23:12.299Z,4.20
2018-12-29T05:24:12.284Z,4.26
2018-12-29T05:25:12.269Z,4.23
2018-12-29T05:26:12.255Z,4.28
2018-12-29T05:27:12.241Z,4.26
2018-12-29T05:28:12.228Z,4.23
2018-12-29T05:29:12.213Z,4.16
2018-12-29T05:30:12.199Z,4.17
2018-12-29T05:31:12.185Z,4.20
2018-12-29T05:32:12.173Z,4.28
2018-12-29T05:33:12.157Z,4.30
2018-12-29T05:34:12.144Z,4.32
2018-12-29T05:35:12.136Z,4.35
2018-12-29T05:36:12.119Z,4.35
2018-12-29T05:37:12.103Z,4.31
2018-12-29T05:38:12.090Z,4.38
2018-12-29T05:39:12.077Z,4.37
2018-12-29T05:40:12.064Z,4.30
2018-12-29T05:41:12.053Z,4.42
2018-12-29T05:42:12.035Z,4.41
2018-12-29T05:43:12.022Z,4.40
2018-12-29T05:44:12.009Z,4.44
2018-12-29T05:45:11.995Z,4.37
2018-12-29T05:46:11.982Z,4.38
2018-12-29T05:47:11.970Z,4.42
2018-12-29T05:48:11.956Z,4.37
2018-12-29T05:49:11.941Z,4.32
2018-12-29T05:50:11.943Z,4.40
2018-12-29T05:51:11.915Z,4.34
2018-12-29T05:52:11.906Z,4.23
2018-12-29T05:53:11.889Z,4.34
2018-12-29T05:54:11.875Z,4.41
2018-12-29T05:55:11.863Z,4.30
2018-12-29T05:56:11.850Z,4.34
2018-12-29T05:57:11.835Z,4.38
2018-12-29T05:58:11.821Z,4.31
2018-12-29T05:59:11.805Z,4.35
2018-12-29T06:00:11.792Z,4.32
2018-12-29T06:01:11.778Z,4.37
2018-12-29T06:02:11.765Z,4.35
2018-12-29T06:03:11.751Z,4.31
2018-12-29T06:04:11.737Z,4.34
2018-12-29T06:05:11.722Z,4.35
2018-12-29T06:06:11.709Z,4.42
2018-12-29T06:07:11.698Z,4.32
2018-12-29T06:08:11.682Z,4.28
2018-12-29T06:09:11.667Z,4.26
2018-12-29T06:10:11.658Z,4.30
2018-12-29T06:11:11.640Z,4.38
2018-12-29T06:12:11.626Z,4.37
2018-12-29T06:13:11.622Z,4.31
2018-12-29T06:14:11.598Z,4.37
2018-12-29T06:15:11.584Z,4.31
2018-12-29T06:18:11.543Z,4.38
2018-12-29T06:19:11.533Z,4.35
2018-12-29T06:20:11.520Z,4.37
2018-12-29T06:21:11.501Z,4.38
2018-12-29T06:22:11.490Z,4.41
2018-12-29T06:23:11.474Z,4.40
2018-12-29T06:24:11.461Z,4.38
2018-12-29T06:25:11.453Z,4.40
2018-12-29T06:26:11.433Z,4.40
2018-12-29T06:27:11.420Z,4.41
2018-12-29T06:28:11.407Z,4.32
2018-12-29T06:29:11.398Z,4.35
2018-12-29T06:30:11.382Z,4.40
2018-12-29T06:31:11.363Z,4.35
2018-12-29T06:32:11.349Z,4.35
2018-12-29T06:33:11.336Z,4.31
2018-12-29T06:34:11.322Z,4.41
2018-12-29T06:35:11.315Z,4.48
2018-12-29T06:36:11.300Z,4.44
2018-12-29T06:37:11.280Z,4.38
2018-12-29T06:38:11.271Z,4.42
2018-12-29T06:39:11.254Z,4.41
2018-12-29T06:40:11.239Z,4.45
2018-12-29T06:41:11.225Z,4.42
2018-12-29T06:42:11.212Z,4.48
2018-12-29T06:43:11.199Z,4.42
2018-12-29T06:44:11.186Z,4.40
2018-12-29T06:45:11.171Z,4.35
2018-12-29T06:46:11.157Z,4.40
2018-12-29T06:47:11.144Z,4.42
2018-12-29T06:48:11.132Z,4.40
2018-12-29T06:49:11.117Z,4.40
2018-12-29T06:50:11.104Z,4.44
2018-12-29T06:51:11.090Z,4.49
2018-12-29T06:52:11.076Z,4.40
2018-12-29T06:53:11.062Z,4.44
2018-12-29T06:54:11.049Z,4.41
2018-12-29T06:55:11.036Z,4.38
2018-12-29T06:56:11.022Z,4.42
2018-12-29T06:57:11.007Z,4.40
2018-12-29T06:58:10.993Z,4.42
2018-12-29T06:59:10.980Z,4.44
2018-12-29T07:00:10.967Z,4.48
2018-12-29T07:01:10.954Z,4.40
2018-12-29T07:02:10.938Z,4.48
2018-12-29T07:03:10.925Z,4.44
2018-12-29T07:04:10.911Z,4.44
2018-12-29T07:05:10.899Z,4.50
2018-12-29T07:06:11.089Z,4.45
2018-12-29T07:07:10.871Z,4.42
2018-12-29T07:08:10.855Z,4.44
2018-12-29T07:09:10.841Z,4.41
2018-12-29T07:10:10.828Z,4.48
2018-12-29T07:11:10.814Z,4.44
2018-12-29T07:12:10.802Z,4.45
2018-12-29T07:13:10.789Z,4.58
2018-12-29T07:14:10.774Z,4.42
2018-12-29T07:15:10.760Z,4.41
2018-12-29T07:16:10.746Z,4.58
2018-12-29T07:17:10.731Z,4.50
2018-12-29T07:18:10.717Z,4.52
2018-12-29T07:19:10.704Z,4.53
2018-12-29T07:20:10.690Z,4.45
2018-12-29T07:21:10.676Z,4.52
2018-12-29T07:22:10.664Z,4.50
2018-12-29T07:23:10.653Z,4.48
2018-12-29T07:24:10.640Z,4.52
2018-12-29T07:25:10.622Z,4.48
2018-12-29T07:26:10.609Z,4.59
2018-12-29T07:27:10.594Z,4.58
2018-12-29T07:28:10.581Z,4.59
2018-12-29T07:29:10.566Z,4.53
2018-12-29T07:30:10.563Z,4.62
2018-12-29T07:31:10.539Z,4.67
2018-12-29T07:32:10.525Z,4.62
2018-12-29T07:33:10.510Z,4.53
2018-12-29T07:34:10.497Z,4.55
2018-12-29T07:35:10.484Z,4.59
2018-12-29T07:36:10.471Z,4.60
2018-12-29T07:37:10.456Z,4.53
2018-12-29T07:38:10.442Z,4.67
2018-12-29T07:39:10.429Z,4.66
2018-12-29T07:40:10.416Z,4.66
2018-12-29T07:41:10.401Z,4.68
2018-12-29T07:42:10.388Z,4.77
2018-12-29T07:43:10.379Z,4.77
2018-12-29T07:44:10.361Z,4.75
2018-12-29T07:45:10.347Z,4.78
2018-12-29T07:46:10.333Z,4.77
2018-12-29T07:47:10.323Z,4.77
2018-12-29T07:48:10.308Z,4.73
2018-12-29T07:49:10.298Z,4.78
2018-12-29T07:50:10.281Z,4.78
2018-12-29T07:51:10.267Z,4.82
2018-12-29T07:53:10.240Z,4.82
2018-12-29T07:54:10.227Z,4.78
2018-12-29T07:55:10.218Z,4.90
2018-12-29T07:56:10.202Z,4.80
2018-12-29T07:57:10.187Z,4.92
2018-12-29T07:58:10.174Z,4.92
2018-12-29T07:59:10.164Z,4.89
2018-12-29T08:00:10.149Z,4.92
2018-12-29T08:01:10.133Z,4.87
2018-12-29T08:02:10.122Z,4.87
2018-12-29T08:03:10.108Z,4.89
2018-12-29T08:04:10.095Z,4.82
2018-12-29T08:05:10.085Z,4.96
2018-12-29T08:06:10.067Z,4.93
2018-12-29T08:07:10.056Z,4.90
2018-12-29T08:08:10.042Z,4.87
2018-12-29T08:09:10.028Z,4.89
2018-12-29T08:10:10.025Z,4.90
2018-12-29T08:11:10.007Z,4.93
2018-12-29T08:12:09.989Z,4.92
2018-12-29T08:13:09.977Z,4.93
2018-12-29T08:14:09.967Z,4.97
2018-12-29T08:15:09.952Z,4.99
2018-12-29T08:16:09.943Z,5.04
2018-12-29T08:17:09.922Z,4.97
2018-12-29T08:18:09.914Z,4.99
2018-12-29T08:19:09.904Z,4.93
2018-12-29T08:20:09.890Z,5.04
2018-12-29T08:21:09.870Z,4.97
2018-12-29T08:22:09.856Z,4.99
2018-12-29T08:23:09.846Z,4.96
2018-12-29T08:24:09.836Z,4.93
2018-12-29T08:25:09.821Z,4.92
2018-12-29T08:26:09.803Z,4.94
2018-12-29T08:27:09.798Z,5.00
2018-12-29T08:28:09.777Z,4.97
2018-12-29T08:29:09.778Z,5.00
2018-12-29T08:30:09.751Z,5.08
2018-12-29T08:31:09.740Z,5.07
2018-12-29T08:32:09.732Z,5.05
2018-12-29T08:33:09.709Z,5.12
2018-12-29T08:34:09.696Z,5.04
2018-12-29T08:35:09.682Z,5.11
2018-12-29T08:36:09.669Z,5.12
2018-12-29T08:37:09.656Z,5.11
2018-12-29T08:38:09.644Z,5.12
2018-12-29T08:39:09.629Z,5.10
2018-12-29T08:40:09.617Z,5.12
2018-12-29T08:41:09.601Z,5.11
2018-12-29T08:42:09.591Z,5.08
2018-12-29T08:43:09.577Z,5.18
2018-12-29T08:44:09.563Z,5.11
2018-12-29T08:45:09.548Z,5.11
2018-12-29T08:46:09.535Z,5.05
2018-12-29T08:47:09.531Z,5.17
2018-12-29T08:48:09.509Z,5.14
2018-12-29T08:49:09.496Z,5.25
2018-12-29T08:50:13.161Z,5.17
2018-12-29T08:51:09.468Z,5.14
2018-12-29T08:52:09.458Z,5.14
2018-12-29T08:53:09.445Z,5.21
2018-12-29T08:54:09.428Z,5.20
2018-12-29T08:55:09.481Z,5.15
2018-12-29T08:56:09.402Z,5.26
2018-12-29T08:57:09.389Z,5.14
2018-12-29T08:58:09.380Z,5.28
2018-12-29T08:59:09.366Z,5.18
2018-12-29T09:00:09.349Z,5.20
2018-12-29T09:01:09.338Z,5.25
2018-12-29T09:02:09.329Z,5.28
2018-12-29T09:03:09.309Z,5.30
2018-12-29T09:04:09.296Z,5.28
2018-12-29T09:05:09.282Z,5.26
2018-12-29T09:06:09.281Z,5.30
2018-12-29T09:07:09.259Z,5.25
2018-12-29T09:08:09.246Z,5.28
2018-12-29T09:09:09.238Z,5.25
2018-12-29T09:10:09.220Z,5.29
2018-12-29T09:11:09.207Z,5.32
2018-12-29T09:12:09.194Z,5.29
2018-12-29T09:13:09.182Z,5.29
2018-12-29T09:14:09.164Z,5.28
2018-12-29T09:15:09.152Z,5.29
2018-12-29T09:16:09.138Z,5.28
2018-12-29T09:17:12.304Z,5.30
2018-12-29T09:18:09.112Z,5.32
2018-12-29T09:19:09.098Z,5.28
2018-12-29T09:20:09.085Z,5.26
2018-12-29T09:21:09.071Z,5.35
2018-12-29T09:22:09.058Z,5.36
2018-12-29T09:23:09.045Z,5.33
2018-12-29T09:24:09.032Z,5.39
2018-12-29T09:25:09.018Z,5.36
2018-12-29T09:26:09.006Z,5.38
2018-12-29T09:27:08.993Z,5.41
2018-12-29T09:28:08.979Z,5.43
2018-12-29T09:29:08.969Z,5.38
2018-12-29T09:30:08.953Z,5.35
2018-12-29T09:31:08.944Z,5.35
2018-12-29T09:32:08.927Z,5.41
2018-12-29T09:33:08.913Z,5.35
2018-12-29T09:35:08.888Z,5.43
2018-12-29T09:36:08.873Z,5.39
2018-12-29T09:37:08.860Z,5.43
2018-12-29T09:38:08.848Z,5.43
2018-12-29T09:39:08.838Z,5.44
2018-12-29T09:40:08.823Z,5.46
2018-12-29T09:41:08.807Z,5.43
2018-12-29T09:42:08.794Z,5.53
2018-12-29T09:43:08.780Z,5.46
2018-12-29T09:44:08.770Z,5.48
2018-12-29T09:45:08.758Z,5.50
2018-12-29T09:46:08.740Z,5.53
2018-12-29T09:47:08.728Z,5.61
2018-12-29T09:48:08.714Z,5.57
2018-12-29T09:49:08.700Z,5.61
2018-12-29T09:50:08.687Z,5.61
2018-12-29T09:51:08.674Z,5.57
2018-12-29T09:52:08.662Z,5.59
2018-12-29T09:53:08.657Z,5.53
2018-12-29T09:54:08.650Z,5.56
2018-12-29T09:55:08.623Z,5.50
2018-12-29T09:56:08.608Z,5.61
2018-12-29T09:57:08.594Z,5.59
2018-12-29T09:58:08.581Z,5.71
2018-12-29T09:59:08.770Z,5.62
2018-12-29T10:00:08.556Z,5.62
2018-12-29T10:01:08.541Z,5.62
2018-12-29T10:02:08.533Z,5.65
2018-12-29T10:03:08.520Z,5.61
2018-12-29T10:04:08.505Z,5.57
2018-12-29T10:05:09.442Z,5.62
2018-12-29T10:06:08.476Z,5.62
2018-12-29T10:07:08.664Z,5.71
2018-12-29T10:08:08.450Z,5.68
2018-12-29T10:09:08.439Z,5.64
2018-12-29T10:10:08.428Z,5.64
2018-12-29T10:11:08.411Z,5.66
2018-12-29T10:12:08.602Z,5.71
2018-12-29T10:13:08.383Z,5.69
2018-12-29T10:14:08.370Z,5.72
2018-12-29T10:15:08.360Z,5.73
2018-12-29T10:16:08.346Z,5.82
2018-12-29T10:17:08.330Z,5.79
2018-12-29T10:18:08.320Z,5.80
2018-12-29T10:19:08.309Z,5.79
2018-12-29T10:20:08.293Z,5.80
2018-12-29T10:21:08.278Z,5.84
2018-12-29T10:22:08.269Z,5.84
2018-12-29T10:23:08.258Z,5.83
2018-12-29T10:24:08.243Z,5.87
2018-12-29T10:25:08.226Z,5.90
2018-12-29T10:26:08.263Z,5.87
2018-12-29T10:27:08.205Z,5.91
2018-12-29T10:28:08.191Z,5.99
2018-12-29T10:29:08.176Z,6.01
2018-12-29T10:30:08.163Z,5.99
2018-12-29T10:31:08.157Z,5.97
2018-12-29T10:32:08.140Z,5.99
2018-12-29T10:33:08.123Z,6.07
2018-12-29T10:34:08.110Z,6.11
2018-12-29T10:35:08.099Z,6.11
2018-12-29T10:36:08.088Z,6.16
2018-12-29T10:37:08.072Z,6.11
2018-12-29T10:38:08.060Z,6.08
2018-12-29T10:39:08.047Z,6.07
2018-12-29T10:40:08.037Z,6.22
2018-12-29T10:41:08.026Z,6.12
2018-12-29T10:42:08.010Z,6.11
2018-12-29T10:43:07.998Z,6.12
2018-12-29T10:44:07.985Z,6.09
2018-12-29T10:45:07.975Z,6.12
2018-12-29T10:46:07.967Z,6.16
2018-12-29T10:47:07.947Z,6.22
2018-12-29T10:48:07.936Z,6.16
2018-12-29T10:49:07.925Z,6.22
2018-12-29T10:50:07.917Z,6.12
2018-12-29T10:51:07.900Z,6.19
2018-12-29T10:52:07.891Z,6.05
2018-12-29T10:53:07.871Z,6.17
2018-12-29T10:54:07.861Z,6.19
2018-12-29T10:55:07.851Z,6.16
2018-12-29T10:56:07.836Z,6.09
2018-12-29T10:57:07.821Z,6.27
2018-12-29T10:58:07.817Z,6.22
2018-12-29T10:59:07.998Z,6.22
2018-12-29T11:00:07.787Z,6.22
2018-12-29T11:01:07.769Z,6.28
2018-12-29T11:02:07.758Z,6.20
2018-12-29T11:03:07.744Z,6.24
2018-12-29T11:04:07.759Z,6.30
2018-12-29T11:05:07.719Z,6.20
2018-12-29T11:06:07.713Z,6.26
2018-12-29T11:07:07.694Z,6.24
2018-12-29T11:08:07.683Z,6.20
2018-12-29T11:09:07.677Z,6.38
2018-12-29T11:10:07.663Z,6.27
2018-12-29T11:11:07.644Z,6.20
2018-12-29T11:12:07.635Z,6.24
2018-12-29T11:13:07.621Z,6.28
2018-12-29T11:14:07.605Z,6.33
2018-12-29T11:15:07.832Z,6.28
2018-12-29T11:16:07.591Z,6.20
2018-12-29T11:17:07.570Z,6.24
2018-12-29T11:18:07.561Z,6.26
2018-12-29T11:19:07.542Z,6.31
2018-12-29T11:20:07.534Z,6.33
2018-12-29T11:21:07.523Z,6.36
2018-12-29T11:22:07.515Z,6.41
2018-12-29T11:23:07.493Z,6.44
2018-12-29T11:24:07.481Z,6.48
2018-12-29T11:25:07.467Z,6.54
2018-12-29T11:26:07.455Z,6.57
2018-12-29T11:27:07.442Z,6.57
2018-12-29T11:28:07.430Z,6.56
2018-12-29T11:29:07.418Z,6.57
2018-12-29T11:30:07.413Z,6.45
2018-12-29T11:31:07.396Z,6.51
2018-12-29T11:32:07.385Z,6.54
2018-12-29T11:33:07.383Z,6.60
2018-12-29T11:34:07.355Z,6.54
2018-12-29T11:35:07.347Z,6.56
2018-12-29T11:36:07.331Z,6.51
2018-12-29T11:37:07.321Z,6.56
2018-12-29T11:38:07.306Z,6.51
2018-12-29T11:39:07.300Z,6.51
2018-12-29T11:40:07.282Z,6.56
2018-12-29T11:41:07.268Z,6.49
2018-12-29T11:42:07.258Z,6.56
2018-12-29T11:43:07.243Z,6.54
2018-12-29T11:44:07.231Z,6.51
2018-12-29T11:45:07.217Z,6.46
2018-12-29T11:46:07.205Z,6.56
2018-12-29T11:47:07.196Z,6.60
2018-12-29T11:48:07.183Z,6.56
2018-12-29T11:49:07.245Z,6.59
2018-12-29T11:50:07.159Z,6.64
2018-12-29T11:51:07.146Z,6.63
2018-12-29T11:52:07.130Z,6.52
2018-12-29T11:53:07.119Z,6.63
2018-12-29T11:54:07.107Z,6.66
2018-12-29T11:55:07.092Z,6.57
2018-12-29T11:56:07.079Z,6.62
2018-12-29T11:57:07.071Z,6.66
2018-12-29T11:58:07.058Z,6.63
2018-12-29T11:59:07.048Z,6.62
2018-12-29T12:00:08.398Z,6.63
2018-12-29T12:01:07.218Z,6.69
2018-12-29T12:02:07.008Z,6.57
2018-12-29T12:03:06.991Z,6.62
2018-12-29T12:04:07.237Z,6.70
2018-12-29T12:05:06.965Z,6.69
2018-12-29T12:06:06.953Z,6.70
2018-12-29T12:07:06.941Z,6.70
2018-12-29T12:08:06.931Z,6.70
2018-12-29T12:09:06.914Z,6.70
2018-12-29T12:10:06.904Z,6.77
2018-12-29T12:11:06.894Z,6.81
2018-12-29T12:12:06.878Z,6.78
2018-12-29T12:13:06.872Z,6.87
2018-12-29T12:14:06.852Z,6.87
2018-12-29T12:15:06.844Z,6.92
2018-12-29T12:16:06.828Z,6.89
2018-12-29T12:17:06.826Z,6.97
2018-12-29T12:18:06.803Z,7.00
2018-12-29T12:19:06.793Z,6.99
2018-12-29T12:20:06.782Z,6.99
2018-12-29T12:21:06.766Z,6.99
2018-12-29T12:22:06.760Z,7.00
2018-12-29T12:23:06.742Z,6.95
2018-12-29T12:24:06.730Z,6.93
2018-12-29T12:25:06.717Z,6.88
2018-12-29T12:26:06.705Z,6.99
2018-12-29T12:27:06.698Z,6.87
2018-12-29T12:28:06.681Z,6.88
2018-12-29T12:29:06.871Z,6.85
2018-12-29T12:30:06.660Z,6.85
2018-12-29T12:31:06.645Z,6.87
2018-12-29T12:32:06.632Z,6.89
2018-12-29T12:33:06.619Z,6.96
2018-12-29T12:34:06.607Z,6.92
2018-12-29T12:35:06.797Z,6.88
2018-12-29T12:36:06.584Z,6.88
2018-12-29T12:37:06.576Z,6.79
2018-12-29T12:38:06.559Z,6.88
2018-12-29T12:39:06.550Z,6.84
2018-12-29T12:40:06.540Z,6.93
2018-12-29T12:41:06.530Z,6.79
2018-12-29T12:42:06.508Z,6.81
2018-12-29T12:43:06.496Z,6.81
2018-12-29T12:44:06.484Z,6.82
2018-12-29T12:45:06.473Z,6.82
2018-12-29T12:46:06.463Z,6.75
2018-12-29T12:47:06.450Z,6.78
2018-12-29T12:48:06.442Z,6.70
2018-12-29T12:49:06.422Z,6.70
2018-12-29T12:50:06.409Z,6.69
2018-12-29T12:51:06.397Z,6.66
2018-12-29T12:52:06.385Z,6.72
2018-12-29T12:53:06.371Z,6.70
2018-12-29T12:54:06.359Z,6.66
2018-12-29T12:55:06.351Z,6.70
2018-12-29T12:56:06.335Z,6.70
2018-12-29T12:57:06.322Z,6.74
2018-12-29T12:58:06.310Z,6.64
2018-12-29T12:59:06.297Z,6.62
2018-12-29T13:00:06.286Z,6.67
2018-12-29T13:01:06.270Z,6.67
2018-12-29T13:02:06.263Z,6.75
2018-12-29T13:03:06.248Z,6.66
2018-12-29T13:04:06.237Z,6.67
2018-12-29T13:05:06.223Z,6.63
2018-12-29T13:06:06.410Z,6.63
2018-12-29T13:07:06.196Z,6.64
2018-12-29T13:08:06.183Z,6.57
2018-12-29T13:09:06.174Z,6.60
2018-12-29T13:10:06.164Z,6.60
2018-12-29T13:11:06.145Z,6.64
2018-12-29T13:12:06.135Z,6.75
2018-12-29T13:13:06.118Z,6.67
2018-12-29T13:14:06.149Z,6.60
2018-12-29T13:15:06.094Z,6.63
2018-12-29T13:16:06.082Z,6.59
2018-12-29T13:17:06.067Z,6.57
2018-12-29T13:18:12.719Z,6.66
2018-12-29T13:19:06.048Z,6.66
2018-12-29T13:20:06.035Z,6.69
2018-12-29T13:21:06.016Z,6.60
2018-12-29T13:22:06.005Z,6.59
2018-12-29T13:23:05.992Z,6.67